Theux, Belgium
Current Conditions -  °F | °C
As of 8:50 PM on Saturday 25 Oct 2014 (Local Time) from EBLB Reporting Station
Broken Clouds Broken Clouds  
Wind Chill: 10°   Ceiling: 700
Heat Index: 10°   Visibility: 4mi
Dew Point:   Wind: 3mph
Humidity: 94%   Direction: 260°W
Pressure: 30.18"   Gusts: NA
Location:  50.53°N, 5.81°E
Report Text: EBLB 251850Z AUTO 26003KT 6000 FEW002/// BKN007/// BKN009/// 10/09 Q1022 GRN
Loading
Personal Weather Stations






























Interactive Weather Map
Tropical Storm Tracking
New forecast layout! Learn more

10-Day Weather Forecast

Advertisements
Track Severe Weather on mobile